createdAt,value
2019-05-22T00:03:58.805Z,98229.80
2019-05-22T00:10:46.205Z,98234.92
2019-05-22T00:17:17.529Z,98235.42
2019-05-22T00:23:47.944Z,98224.90
2019-05-22T00:30:17.804Z,98235.13
2019-05-22T00:36:19.382Z,98235.80
2019-05-22T00:43:03.855Z,98240.13
2019-05-22T00:49:19.830Z,98252.48
2019-05-22T00:56:05.126Z,98248.53
2019-05-22T01:02:27.156Z,98262.87
2019-05-22T01:04:59.876Z,98267.08
2019-05-22T01:07:37.322Z,98271.61
2019-05-22T01:10:12.085Z,98263.90
2019-05-22T01:12:46.628Z,98270.56
2019-05-22T01:15:21.819Z,98271.55
2019-05-22T01:17:54.296Z,98264.34
2019-05-22T01:20:28.561Z,98262.50
2019-05-22T01:23:03.572Z,98265.64
2019-05-22T01:25:36.120Z,98271.12
2019-05-22T01:28:07.198Z,98269.69
2019-05-22T01:30:57.624Z,98267.56
2019-05-22T01:33:44.764Z,98269.05
2019-05-22T01:36:27.982Z,98276.18
2019-05-22T01:39:16.903Z,98272.55
2019-05-22T01:41:51.654Z,98281.27
2019-05-22T01:44:23.200Z,98277.17
2019-05-22T01:46:56.680Z,98282.88
2019-05-22T01:49:27.724Z,98278.24
2019-05-22T01:52:00.319Z,98276.27
2019-05-22T01:54:31.177Z,98275.62
2019-05-22T01:57:04.283Z,98275.77
2019-05-22T01:59:36.841Z,98273.70
2019-05-22T02:02:11.958Z,98270.27
2019-05-22T02:04:43.344Z,98263.89
2019-05-22T02:07:14.131Z,98267.65
2019-05-22T02:09:48.797Z,98269.69
2019-05-22T02:12:36.320Z,98261.72
2019-05-22T02:15:09.957Z,98261.72
2019-05-22T02:17:41.816Z,98258.34
2019-05-22T02:20:12.808Z,98253.28
2019-05-22T02:22:44.265Z,98250.72
2019-05-22T02:25:15.823Z,98252.78
2019-05-22T02:27:47.807Z,98249.23
2019-05-22T02:30:21.655Z,98248.68
2019-05-22T02:32:53.100Z,98256.27
2019-05-22T02:35:25.507Z,98251.62
2019-05-22T02:37:57.402Z,98253.42
2019-05-22T02:40:35.163Z,98251.17
2019-05-22T02:43:06.874Z,98244.48
2019-05-22T02:45:37.586Z,98243.55
2019-05-22T02:48:09.646Z,98248.05
2019-05-22T02:50:42.124Z,98255.20
2019-05-22T02:53:15.000Z,98261.88
2019-05-22T02:55:46.736Z,98259.95
2019-05-22T02:58:18.381Z,98262.62
2019-05-22T03:01:00.437Z,98259.88
2019-05-22T03:03:32.159Z,98259.88
2019-05-22T03:06:09.512Z,98264.30
2019-05-22T03:09:17.742Z,98268.16
2019-05-22T03:12:11.292Z,98272.75
2019-05-22T03:14:43.508Z,98272.50
2019-05-22T03:17:31.292Z,98271.56
2019-05-22T03:20:09.246Z,98274.23
2019-05-22T03:23:04.611Z,98273.45
2019-05-22T03:25:37.697Z,98280.05
2019-05-22T03:28:10.491Z,98282.05
2019-05-22T03:30:45.371Z,98276.98
2019-05-22T03:33:16.600Z,98284.88
2019-05-22T03:35:50.733Z,98283.64
2019-05-22T03:38:23.099Z,98284.42
2019-05-22T03:40:55.041Z,98286.50
2019-05-22T03:43:30.173Z,98295.78
2019-05-22T03:46:21.830Z,98294.43
2019-05-22T03:48:53.589Z,98296.06
2019-05-22T03:51:24.367Z,98306.48
2019-05-22T03:53:55.087Z,98309.63
2019-05-22T03:56:26.190Z,98306.03
2019-05-22T03:58:57.894Z,98310.00
2019-05-22T04:01:29.717Z,98312.30
2019-05-22T04:04:02.276Z,98311.92
2019-05-22T04:06:33.499Z,98309.09
2019-05-22T04:09:19.347Z,98308.90
2019-05-22T04:11:50.642Z,98316.91
2019-05-22T04:14:24.712Z,98319.59
2019-05-22T04:16:57.427Z,98316.94
2019-05-22T04:19:45.176Z,98326.02
2019-05-22T04:22:00.910Z,98323.23
2019-05-22T04:24:32.354Z,98327.03
2019-05-22T04:27:05.325Z,98333.82
2019-05-22T04:29:38.465Z,98333.45
2019-05-22T04:32:15.931Z,98333.11
2019-05-22T04:34:47.574Z,98333.03
2019-05-22T04:37:20.162Z,98342.52
2019-05-22T04:39:55.153Z,98336.59
2019-05-22T04:42:27.145Z,98335.11
2019-05-22T04:45:13.290Z,98345.41
2019-05-22T04:47:57.131Z,98345.91
2019-05-22T04:50:29.850Z,98350.08
2019-05-22T04:53:01.862Z,98344.63
2019-05-22T04:55:32.952Z,98345.55
2019-05-22T04:58:08.153Z,98343.38
2019-05-22T05:00:38.711Z,98340.19
2019-05-22T05:03:10.904Z,98344.06
2019-05-22T05:05:44.304Z,98348.31
2019-05-22T05:08:15.295Z,98348.27
2019-05-22T05:10:49.982Z,98358.05
2019-05-22T05:13:20.810Z,98354.70
2019-05-22T05:15:53.421Z,98355.31
2019-05-22T05:18:23.768Z,98356.57
2019-05-22T05:20:54.490Z,98358.64
2019-05-22T05:23:25.209Z,98353.23
2019-05-22T05:25:55.819Z,98358.73
2019-05-22T05:28:26.665Z,98352.09
2019-05-22T05:30:58.693Z,98355.80
2019-05-22T05:33:33.726Z,98352.48
2019-05-22T05:36:06.533Z,98361.27
2019-05-22T05:38:39.617Z,98363.83
2019-05-22T05:41:12.443Z,98368.20
2019-05-22T05:43:43.558Z,98368.95
2019-05-22T05:46:14.239Z,98372.02
2019-05-22T05:48:47.466Z,98375.56
2019-05-22T05:51:29.186Z,98375.01
2019-05-22T05:54:08.694Z,98374.13
2019-05-22T05:56:42.036Z,98381.79
2019-05-22T05:59:14.106Z,98381.12
2019-05-22T06:01:52.101Z,98382.72
2019-05-22T06:04:35.443Z,98382.22
2019-05-22T06:07:26.776Z,98386.09
2019-05-22T06:10:56.518Z,98389.33
2019-05-22T06:13:30.151Z,98394.57
2019-05-22T06:17:08.786Z,98386.64
2019-05-22T06:19:45.495Z,98393.13
2019-05-22T06:22:17.243Z,98389.45
2019-05-22T06:25:04.145Z,98393.00
2019-05-22T06:28:06.932Z,98397.26
2019-05-22T06:30:46.529Z,98400.49
2019-05-22T06:33:36.870Z,98404.53
2019-05-22T06:36:16.693Z,98409.40
2019-05-22T06:39:16.632Z,98411.20
2019-05-22T06:41:49.681Z,98414.78
2019-05-22T06:44:32.732Z,98413.70
2019-05-22T06:47:06.013Z,98411.39
2019-05-22T06:49:49.265Z,98413.02
2019-05-22T06:52:20.059Z,98416.75
2019-05-22T06:54:51.900Z,98411.39
2019-05-22T06:57:25.257Z,98411.12
2019-05-22T07:00:12.188Z,98417.00
2019-05-22T07:02:35.584Z,98408.81
2019-05-22T07:05:07.552Z,98422.19
2019-05-22T07:07:38.867Z,98418.64
2019-05-22T07:10:16.181Z,98422.83
2019-05-22T07:12:50.623Z,98423.87
2019-05-22T07:15:45.543Z,98424.19
2019-05-22T07:18:19.905Z,98425.92
2019-05-22T07:20:52.147Z,98429.08
2019-05-22T07:23:26.744Z,98425.78
2019-05-22T07:25:59.506Z,98423.48
2019-05-22T07:28:30.296Z,98427.02
2019-05-22T07:31:01.229Z,98431.14
2019-05-22T07:33:35.172Z,98429.47
2019-05-22T07:36:10.271Z,98432.02
2019-05-22T07:38:39.127Z,98434.50
2019-05-22T07:41:11.754Z,98438.44
2019-05-22T07:43:42.386Z,98440.39
2019-05-22T07:46:13.169Z,98441.02
2019-05-22T07:48:44.327Z,98447.09
2019-05-22T07:51:17.509Z,98440.28
2019-05-22T07:53:48.626Z,98440.00
2019-05-22T07:56:20.515Z,98438.39
2019-05-22T07:58:58.873Z,98444.64
2019-05-22T08:01:30.667Z,98446.28
2019-05-22T08:04:04.012Z,98445.56
2019-05-22T08:06:35.537Z,98450.11
2019-05-22T08:09:10.259Z,98442.29
2019-05-22T08:11:41.632Z,98441.27
2019-05-22T08:14:14.121Z,98440.61
2019-05-22T08:16:45.253Z,98444.97
2019-05-22T08:19:15.976Z,98437.82
2019-05-22T08:21:46.848Z,98445.70
2019-05-22T08:24:17.644Z,98444.59
2019-05-22T08:26:54.437Z,98447.83
2019-05-22T08:29:23.294Z,98450.45
2019-05-22T08:31:58.287Z,98455.20
2019-05-22T08:34:29.062Z,98457.34
2019-05-22T08:37:02.365Z,98454.63
2019-05-22T08:39:34.558Z,98456.86
2019-05-22T08:42:07.230Z,98459.41
2019-05-22T08:44:39.901Z,98459.42
2019-05-22T08:47:11.795Z,98462.08
2019-05-22T08:49:42.857Z,98458.23
2019-05-22T08:52:23.762Z,98461.91
2019-05-22T08:54:49.927Z,98458.88
2019-05-22T08:57:22.490Z,98465.14
2019-05-22T08:59:53.263Z,98462.52
2019-05-22T09:02:23.974Z,98467.52
2019-05-22T09:04:54.531Z,98463.06
2019-05-22T09:07:25.945Z,98466.80
2019-05-22T09:09:56.579Z,98467.34
2019-05-22T09:12:27.576Z,98469.55
2019-05-22T09:14:59.118Z,98472.05
2019-05-22T09:17:29.973Z,98472.38
2019-05-22T09:20:00.580Z,98472.88
2019-05-22T09:22:40.707Z,98474.41
2019-05-22T09:25:07.114Z,98466.56
2019-05-22T09:27:38.084Z,98462.81
2019-05-22T09:30:09.291Z,98468.89
2019-05-22T09:32:39.870Z,98468.61
2019-05-22T09:35:11.037Z,98470.92
2019-05-22T09:37:41.664Z,98466.25
2019-05-22T09:40:13.879Z,98459.17
2019-05-22T09:42:44.704Z,98457.17
2019-05-22T09:45:18.150Z,98459.58
2019-05-22T09:47:48.957Z,98459.30
2019-05-22T09:50:23.180Z,98460.52
2019-05-22T09:52:57.443Z,98460.89
2019-05-22T09:55:26.713Z,98463.65
2019-05-22T09:57:57.266Z,98457.98
2019-05-22T10:00:28.866Z,98462.83
2019-05-22T10:02:59.843Z,98466.38
2019-05-22T10:05:31.690Z,98462.83
2019-05-22T10:08:03.933Z,98462.52
2019-05-22T10:10:37.060Z,98465.86
2019-05-22T10:13:09.153Z,98467.98
2019-05-22T10:15:40.357Z,98467.38
2019-05-22T10:18:11.144Z,98467.25
2019-05-22T10:20:46.016Z,98472.23
2019-05-22T10:23:18.215Z,98467.45
2019-05-22T10:25:48.872Z,98467.03
2019-05-22T10:28:19.653Z,98466.52
2019-05-22T10:30:51.192Z,98474.31
2019-05-22T10:33:22.377Z,98464.59
2019-05-22T10:35:55.160Z,98470.67
2019-05-22T10:38:25.841Z,98464.50
2019-05-22T10:40:59.265Z,98460.83
2019-05-22T10:43:29.080Z,98464.37
2019-05-22T10:45:59.733Z,98462.04
2019-05-22T10:48:31.709Z,98461.14
2019-05-22T10:51:02.297Z,98462.06
2019-05-22T10:53:34.384Z,98468.45
2019-05-22T10:56:05.834Z,98465.99
2019-05-22T10:58:38.037Z,98464.17
2019-05-22T11:01:10.505Z,98460.11
2019-05-22T11:03:41.267Z,98459.36
2019-05-22T11:06:12.226Z,98460.09
2019-05-22T11:08:42.988Z,98448.83
2019-05-22T11:11:14.517Z,98457.92
2019-05-22T11:13:59.800Z,98461.37
2019-05-22T11:16:17.733Z,98465.12
2019-05-22T11:18:48.313Z,98455.59
2019-05-22T11:21:18.877Z,98463.47
2019-05-22T11:23:52.882Z,98453.94
2019-05-22T11:26:23.190Z,98454.91
2019-05-22T11:28:54.197Z,98452.32
2019-05-22T11:31:25.528Z,98452.31
2019-05-22T11:33:56.887Z,98455.62
2019-05-22T11:36:27.678Z,98450.45
2019-05-22T11:38:58.335Z,98457.52
2019-05-22T11:41:31.880Z,98457.01
2019-05-22T11:44:05.323Z,98448.28
2019-05-22T11:46:36.209Z,98459.61
2019-05-22T11:49:08.718Z,98458.83
2019-05-22T11:51:39.983Z,98457.50
2019-05-22T11:54:13.740Z,98454.98
2019-05-22T11:56:44.565Z,98454.82
2019-05-22T11:59:15.443Z,98451.41
2019-05-22T12:01:46.705Z,98457.02
2019-05-22T12:04:17.459Z,98444.59
2019-05-22T12:06:53.528Z,98450.80
2019-05-22T12:09:22.398Z,98451.96
2019-05-22T12:11:53.894Z,98448.92
2019-05-22T12:14:24.628Z,98451.41
2019-05-22T12:16:55.445Z,98456.48
2019-05-22T12:19:27.239Z,98451.61
2019-05-22T12:21:58.052Z,98453.23
2019-05-22T12:24:36.544Z,98449.12
2019-05-22T12:27:02.064Z,98452.52
2019-05-22T12:29:33.233Z,98452.56
2019-05-22T12:32:07.427Z,98453.44
2019-05-22T12:34:38.057Z,98458.59
2019-05-22T12:37:15.131Z,98456.91
2019-05-22T12:39:45.970Z,98454.88
2019-05-22T12:42:18.578Z,98456.70
2019-05-22T12:44:49.700Z,98452.41
2019-05-22T12:47:21.296Z,98460.98
2019-05-22T12:49:55.329Z,98455.05
2019-05-22T12:52:26.125Z,98457.18
2019-05-22T12:55:00.282Z,98454.09
2019-05-22T12:57:31.440Z,98454.77
2019-05-22T13:00:03.230Z,98452.91
2019-05-22T13:02:36.553Z,98457.41
2019-05-22T13:05:14.008Z,98452.77
2019-05-22T13:07:42.845Z,98457.61
2019-05-22T13:10:13.816Z,98455.34
2019-05-22T13:12:45.031Z,98460.77
2019-05-22T13:15:17.480Z,98451.05
2019-05-22T13:17:50.407Z,98455.90
2019-05-22T13:20:40.957Z,98455.58
2019-05-22T13:22:58.811Z,98461.11
2019-05-22T13:25:36.385Z,98456.53
2019-05-22T13:28:08.836Z,98461.92
2019-05-22T13:30:42.669Z,98458.68
2019-05-22T13:33:17.910Z,98453.06
2019-05-22T13:35:49.214Z,98454.11
2019-05-22T13:38:25.597Z,98459.29
2019-05-22T13:40:57.234Z,98447.77
2019-05-22T13:43:29.082Z,98447.73
2019-05-22T13:46:01.213Z,98442.61
2019-05-22T13:48:32.543Z,98440.52
2019-05-22T13:51:05.948Z,98450.08
2019-05-22T13:53:36.696Z,98438.79
2019-05-22T13:56:08.712Z,98442.07
2019-05-22T13:58:40.014Z,98445.36
2019-05-22T14:01:12.100Z,98443.16
2019-05-22T14:03:42.865Z,98444.55
2019-05-22T14:06:14.300Z,98440.09
2019-05-22T14:08:46.118Z,98438.59
2019-05-22T14:11:18.092Z,98441.88
2019-05-22T14:13:49.479Z,98439.81
2019-05-22T14:16:20.603Z,98446.27
2019-05-22T14:18:51.319Z,98443.50
2019-05-22T14:21:22.678Z,98439.83
2019-05-22T14:23:53.335Z,98431.84
2019-05-22T14:26:24.046Z,98426.53
2019-05-22T14:28:55.494Z,98427.69
2019-05-22T14:31:26.873Z,98432.66
2019-05-22T14:33:59.867Z,98423.67
2019-05-22T14:36:31.139Z,98424.30
2019-05-22T14:39:04.192Z,98427.36
2019-05-22T14:41:34.883Z,98441.45
2019-05-22T14:44:05.842Z,98430.36
2019-05-22T14:46:38.130Z,98438.09
2019-05-22T14:49:09.265Z,98442.97
2019-05-22T14:51:39.916Z,98439.20
2019-05-22T14:54:13.424Z,98444.19
2019-05-22T14:56:46.652Z,98445.67
2019-05-22T14:59:17.771Z,98433.98
2019-05-22T15:01:48.549Z,98437.53
2019-05-22T15:04:19.178Z,98434.80
2019-05-22T15:06:54.777Z,98426.95
2019-05-22T15:09:25.588Z,98435.59
2019-05-22T15:11:56.229Z,98435.59
2019-05-22T15:14:26.922Z,98440.23
2019-05-22T15:16:57.477Z,98438.39
2019-05-22T15:19:28.327Z,98441.83
2019-05-22T15:21:58.932Z,98437.09
2019-05-22T15:24:30.161Z,98444.06
2019-05-22T15:27:01.416Z,98431.46
2019-05-22T15:29:32.064Z,98429.65
2019-05-22T15:32:03.582Z,98428.59
2019-05-22T15:34:34.833Z,98421.32
2019-05-22T15:37:07.544Z,98422.91
2019-05-22T15:39:38.974Z,98423.52
2019-05-22T15:42:13.627Z,98421.09
2019-05-22T15:44:45.867Z,98424.67
2019-05-22T15:47:16.635Z,98423.55
2019-05-22T15:49:47.846Z,98421.06
2019-05-22T15:52:20.128Z,98412.41
2019-05-22T15:54:51.811Z,98418.05
2019-05-22T15:57:23.939Z,98419.83
2019-05-22T15:59:55.511Z,98413.91
2019-05-22T16:02:27.771Z,98413.38
2019-05-22T16:05:01.376Z,98417.45
2019-05-22T16:07:34.033Z,98410.55
2019-05-22T16:10:05.467Z,98411.39
2019-05-22T16:12:36.297Z,98411.76
2019-05-22T16:15:10.044Z,98419.70
2019-05-22T16:17:42.704Z,98415.33
2019-05-22T16:20:14.494Z,98421.41
2019-05-22T16:22:45.772Z,98419.69
2019-05-22T16:25:21.977Z,98426.94
2019-05-22T16:27:54.356Z,98418.39
2019-05-22T16:30:27.927Z,98424.89
2019-05-22T16:32:58.708Z,98421.72
2019-05-22T16:35:29.342Z,98419.75
2019-05-22T16:38:00.161Z,98423.22
2019-05-22T16:40:31.969Z,98421.38
2019-05-22T16:43:02.701Z,98421.34
2019-05-22T16:45:34.672Z,98418.88
2019-05-22T16:48:08.072Z,98424.61
2019-05-22T16:50:39.864Z,98420.11
2019-05-22T16:53:11.873Z,98416.19
2019-05-22T16:55:44.071Z,98422.42
2019-05-22T16:58:15.801Z,98414.61
2019-05-22T17:00:47.261Z,98419.34
2019-05-22T17:03:18.713Z,98420.64
2019-05-22T17:05:49.283Z,98422.81
2019-05-22T17:08:22.015Z,98422.74
2019-05-22T17:10:53.133Z,98429.22
2019-05-22T17:13:24.280Z,98433.72
2019-05-22T17:15:55.110Z,98423.09
2019-05-22T17:18:45.544Z,98429.35
2019-05-22T17:21:03.120Z,98433.45
2019-05-22T17:23:34.391Z,98437.23
2019-05-22T17:26:06.311Z,98434.15
2019-05-22T17:28:38.260Z,98427.62
2019-05-22T17:31:10.404Z,98439.17
2019-05-22T17:33:42.001Z,98436.13
2019-05-22T17:36:13.580Z,98439.78
2019-05-22T17:38:44.979Z,98445.19
2019-05-22T17:41:17.216Z,98446.13
2019-05-22T17:43:52.124Z,98451.23
2019-05-22T17:46:25.157Z,98445.86
2019-05-22T17:48:57.107Z,98450.30
2019-05-22T17:51:28.141Z,98453.59
2019-05-22T17:53:59.220Z,98449.02
2019-05-22T17:56:30.510Z,98456.53
2019-05-22T17:59:01.613Z,98450.36
2019-05-22T18:01:33.736Z,98445.59
2019-05-22T18:04:07.807Z,98449.13
2019-05-22T18:06:38.637Z,98451.64
2019-05-22T18:09:10.493Z,98453.80
2019-05-22T18:11:41.541Z,98454.27
2019-05-22T18:14:13.439Z,98452.47
2019-05-22T18:16:44.690Z,98455.48
2019-05-22T18:19:15.474Z,98456.64
2019-05-22T18:21:47.164Z,98458.56
2019-05-22T18:24:18.785Z,98458.08
2019-05-22T18:26:49.639Z,98460.42
2019-05-22T18:29:20.344Z,98454.27
2019-05-22T18:31:53.257Z,98460.34
2019-05-22T18:34:26.221Z,98465.33
2019-05-22T18:36:56.909Z,98460.63
2019-05-22T18:39:29.980Z,98459.95
2019-05-22T18:42:01.221Z,98461.42
2019-05-22T18:44:34.924Z,98464.23
2019-05-22T18:47:06.306Z,98463.62
2019-05-22T18:49:37.615Z,98473.31
2019-05-22T18:52:08.455Z,98473.88
2019-05-22T18:54:39.122Z,98472.16
2019-05-22T18:57:09.938Z,98479.41
2019-05-22T18:59:40.895Z,98483.53
2019-05-22T19:02:11.714Z,98480.83
2019-05-22T19:04:44.346Z,98481.18
2019-05-22T19:07:18.056Z,98480.83
2019-05-22T19:09:48.662Z,98485.80
2019-05-22T19:12:19.894Z,98484.98
2019-05-22T19:14:50.813Z,98485.64
2019-05-22T19:17:21.391Z,98491.75
2019-05-22T19:19:52.336Z,98489.50
2019-05-22T19:22:23.267Z,98494.38
2019-05-22T19:24:53.901Z,98495.84
2019-05-22T19:27:25.231Z,98502.36
2019-05-22T19:29:55.904Z,98503.25
2019-05-22T19:32:26.770Z,98510.97
2019-05-22T19:34:57.431Z,98505.71
2019-05-22T19:37:28.054Z,98511.02
2019-05-22T19:39:58.671Z,98507.87
2019-05-22T19:42:29.382Z,98509.28
2019-05-22T19:45:00.037Z,98513.57
2019-05-22T19:47:30.711Z,98514.79
2019-05-22T19:50:01.792Z,98519.66
2019-05-22T19:52:41.402Z,98522.79
2019-05-22T19:55:12.659Z,98523.57
2019-05-22T19:57:44.251Z,98528.43
2019-05-22T20:00:15.690Z,98530.23
2019-05-22T20:02:50.832Z,98535.82
2019-05-22T20:05:24.159Z,98530.47
2019-05-22T20:07:58.614Z,98533.59
2019-05-22T20:10:29.226Z,98537.03
2019-05-22T20:13:00.556Z,98538.92
2019-05-22T20:15:32.106Z,98538.97
2019-05-22T20:18:02.868Z,98550.36
2019-05-22T20:20:34.335Z,98544.47
2019-05-22T20:23:05.459Z,98541.44
2019-05-22T20:25:36.336Z,98544.66
2019-05-22T20:28:07.871Z,98546.89
2019-05-22T20:30:38.859Z,98543.45
2019-05-22T20:33:10.345Z,98546.76
2019-05-22T20:35:47.785Z,98552.26
2019-05-22T20:38:19.146Z,98548.72
2019-05-22T20:40:49.835Z,98556.06
2019-05-22T20:43:21.411Z,98556.43
2019-05-22T20:45:55.699Z,98559.69
2019-05-22T20:48:29.995Z,98555.72
2019-05-22T20:51:01.572Z,98563.67
2019-05-22T20:53:52.209Z,98564.64
2019-05-22T20:56:11.808Z,98571.59
2019-05-22T20:58:43.139Z,98574.30
2019-05-22T21:01:15.522Z,98568.72
2019-05-22T21:03:47.280Z,98573.23
2019-05-22T21:06:22.151Z,98569.96
2019-05-22T21:08:53.834Z,98578.30
2019-05-22T21:11:28.398Z,98576.38
2019-05-22T21:14:00.129Z,98567.64
2019-05-22T21:16:31.848Z,98570.25
2019-05-22T21:19:03.537Z,98568.89
2019-05-22T21:21:34.301Z,98568.23
2019-05-22T21:24:11.200Z,98570.07
2019-05-22T21:26:38.741Z,98572.38
2019-05-22T21:29:09.388Z,98564.67
2019-05-22T21:31:40.297Z,98566.30
2019-05-22T21:34:11.486Z,98574.08
2019-05-22T21:36:42.695Z,98567.84
2019-05-22T21:39:14.100Z,98577.02
2019-05-22T21:41:45.025Z,98574.45
2019-05-22T21:44:15.611Z,98573.19
2019-05-22T21:46:46.195Z,98577.80
2019-05-22T21:49:18.742Z,98577.75
2019-05-22T21:51:49.335Z,98579.27
2019-05-22T21:54:20.280Z,98582.12
2019-05-22T21:56:51.340Z,98581.01
2019-05-22T21:59:22.373Z,98584.73
2019-05-22T22:01:59.216Z,98584.49
2019-05-22T22:04:34.122Z,98586.73
2019-05-22T22:07:05.934Z,98577.56
2019-05-22T22:09:37.351Z,98580.05
2019-05-22T22:12:10.700Z,98582.70
2019-05-22T22:14:44.958Z,98587.12
2019-05-22T22:17:19.173Z,98587.98
2019-05-22T22:19:52.332Z,98586.88
2019-05-22T22:22:29.612Z,98585.98
2019-05-22T22:25:00.835Z,98586.65
2019-05-22T22:27:32.402Z,98586.73
2019-05-22T22:30:04.812Z,98587.31
2019-05-22T22:32:37.304Z,98585.50
2019-05-22T22:35:15.149Z,98584.81
2019-05-22T22:37:46.459Z,98584.52
2019-05-22T22:40:22.608Z,98586.37
2019-05-22T22:42:54.466Z,98590.02
2019-05-22T22:45:39.116Z,98590.42
2019-05-22T22:48:10.620Z,98592.34
2019-05-22T22:50:45.079Z,98589.14
2019-05-22T22:53:17.087Z,98582.72
2019-05-22T22:55:49.182Z,98585.51
2019-05-22T22:58:25.011Z,98581.80
2019-05-22T23:00:57.964Z,98581.92
2019-05-22T23:03:32.297Z,98589.88
2019-05-22T23:06:02.860Z,98583.39
2019-05-22T23:08:35.441Z,98586.51
2019-05-22T23:11:08.718Z,98585.10
2019-05-22T23:13:40.941Z,98582.03
2019-05-22T23:16:11.793Z,98588.08
2019-05-22T23:19:41.048Z,98585.08
2019-05-22T23:22:29.271Z,98587.10
2019-05-22T23:25:00.787Z,98590.34
2019-05-22T23:27:31.521Z,98588.70
2019-05-22T23:30:05.251Z,98591.42
2019-05-22T23:32:36.416Z,98589.06
2019-05-22T23:35:07.639Z,98586.34
2019-05-22T23:37:39.950Z,98588.99
2019-05-22T23:40:13.107Z,98586.73
2019-05-22T23:42:44.444Z,98588.96
2019-05-22T23:45:20.708Z,98594.20
2019-05-22T23:48:06.710Z,98588.99
2019-05-22T23:50:39.195Z,98591.53
2019-05-22T23:53:12.444Z,98597.14
2019-05-22T23:55:44.785Z,98590.58
2019-05-22T23:58:17.090Z,98593.84
